createdAt,value
2018-10-05T00:00:22.910Z,67.07
2018-10-05T00:02:49.232Z,67.95
2018-10-05T00:05:15.551Z,67.33
2018-10-05T00:07:41.872Z,67.12
2018-10-05T00:10:08.510Z,66.17
2018-10-05T00:12:34.954Z,66.17
2018-10-05T00:15:01.266Z,67.29
2018-10-05T00:17:27.582Z,67.61
2018-10-05T00:19:53.899Z,68.04
2018-10-05T00:22:20.261Z,68.09
2018-10-05T00:24:46.580Z,68.48
2018-10-05T00:27:12.900Z,68.48
2018-10-05T00:29:39.250Z,69.66
2018-10-05T00:32:05.576Z,69.27
2018-10-05T00:34:31.938Z,68.62
2018-10-05T00:36:58.261Z,68.81
2018-10-05T00:39:24.607Z,69.27
2018-10-05T00:41:50.972Z,68.42
2018-10-05T00:44:17.322Z,68.83
2018-10-05T00:46:43.643Z,69.39
2018-10-05T00:49:10.007Z,68.64
2018-10-05T00:51:36.345Z,67.81
2018-10-05T00:54:02.665Z,67.62
2018-10-05T00:56:29.057Z,68.40
2018-10-05T00:58:55.377Z,68.71
2018-10-05T01:01:21.717Z,67.99
2018-10-05T01:03:48.083Z,68.01
2018-10-05T01:06:14.424Z,66.56
2018-10-05T01:08:40.770Z,67.66
2018-10-05T01:11:07.176Z,67.26
2018-10-05T01:13:33.520Z,66.79
2018-10-05T01:15:59.840Z,66.30
2018-10-05T01:18:26.210Z,66.85
2018-10-05T01:20:52.553Z,67.66
2018-10-05T01:23:18.908Z,68.20
2018-10-05T01:25:45.293Z,68.39
2018-10-05T01:28:11.640Z,68.92
2018-10-05T01:30:38.013Z,67.24
2018-10-05T01:33:04.380Z,67.47
2018-10-05T01:35:30.709Z,67.21
2018-10-05T01:37:57.029Z,68.79
2018-10-05T01:40:23.395Z,67.88
2018-10-05T01:42:49.737Z,67.93
2018-10-05T01:45:16.056Z,68.06
2018-10-05T01:47:42.458Z,68.06
2018-10-05T01:50:08.770Z,68.20
2018-10-05T01:52:35.124Z,68.86
2018-10-05T01:55:01.509Z,68.56
2018-10-05T01:57:27.852Z,66.88
2018-10-05T01:59:54.194Z,67.78
2018-10-05T02:02:20.577Z,68.08
2018-10-05T02:04:46.893Z,67.88
2018-10-05T02:07:13.233Z,67.25
2018-10-05T02:09:39.654Z,69.14
2018-10-05T02:12:05.972Z,68.99
2018-10-05T02:14:32.418Z,69.43
2018-10-05T02:16:58.786Z,69.85
2018-10-05T02:19:25.128Z,69.52
2018-10-05T02:21:51.440Z,69.43
2018-10-05T02:24:17.836Z,69.45
2018-10-05T02:26:44.190Z,67.85
2018-10-05T02:29:10.533Z,68.22
2018-10-05T02:31:36.910Z,68.32
2018-10-05T02:34:03.249Z,68.64
2018-10-05T02:36:29.589Z,67.50
2018-10-05T02:38:55.948Z,66.98
2018-10-05T02:41:22.269Z,68.03
2018-10-05T02:43:48.614Z,67.72
2018-10-05T02:46:15.005Z,67.33
2018-10-05T02:48:41.349Z,66.83
2018-10-05T02:51:07.690Z,67.80
2018-10-05T02:53:34.119Z,69.27
2018-10-05T02:56:00.439Z,68.37
2018-10-05T02:58:26.753Z,67.98
2018-10-05T03:00:53.120Z,66.98
2018-10-05T03:03:19.437Z,67.32
2018-10-05T03:05:45.754Z,68.59
2018-10-05T03:08:12.142Z,68.64
2018-10-05T03:10:38.458Z,68.38
2018-10-05T03:13:04.803Z,68.89
2018-10-05T03:15:31.203Z,69.29
2018-10-05T03:17:57.546Z,69.69
2018-10-05T03:20:23.862Z,69.44
2018-10-05T03:22:50.235Z,69.60
2018-10-05T03:25:16.576Z,69.05
2018-10-05T03:27:42.922Z,69.02
2018-10-05T03:30:09.270Z,69.05
2018-10-05T03:32:35.614Z,68.51
2018-10-05T03:35:02.051Z,68.43
2018-10-05T03:37:28.398Z,67.92
2018-10-05T03:39:54.716Z,69.15
2018-10-05T03:42:21.092Z,70.21
2018-10-05T03:44:47.418Z,71.14
2018-10-05T03:47:13.734Z,71.72
2018-10-05T03:49:40.175Z,70.29
2018-10-05T03:52:06.455Z,70.24
2018-10-05T03:54:32.775Z,70.83
2018-10-05T03:56:59.133Z,71.08
2018-10-05T03:59:25.478Z,70.41
2018-10-05T04:01:51.825Z,71.08
2018-10-05T04:04:18.143Z,72.12
2018-10-05T04:06:44.491Z,71.31
2018-10-05T04:09:10.817Z,71.03
2018-10-05T04:11:37.159Z,71.39
2018-10-05T04:14:03.551Z,69.77
2018-10-05T04:16:29.892Z,68.78
2018-10-05T04:18:56.238Z,69.75
2018-10-05T04:21:22.564Z,70.17
2018-10-05T04:23:48.884Z,70.44
2018-10-05T04:26:15.244Z,70.23
2018-10-05T04:28:41.565Z,70.10
2018-10-05T04:31:07.911Z,68.97
2018-10-05T04:33:34.266Z,69.28
2018-10-05T04:36:00.592Z,69.30
2018-10-05T04:38:26.913Z,68.80
2018-10-05T04:40:53.294Z,69.08
2018-10-05T04:43:19.617Z,69.85
2018-10-05T04:45:46.002Z,69.67
2018-10-05T04:48:12.329Z,69.88
2018-10-05T04:50:38.809Z,70.09
2018-10-05T04:53:05.151Z,69.83
2018-10-05T04:55:31.499Z,69.43
2018-10-05T04:57:57.843Z,69.30
2018-10-05T05:00:24.789Z,68.81
2018-10-05T05:02:51.174Z,68.75
2018-10-05T05:05:17.610Z,68.32
2018-10-05T05:07:43.955Z,68.30
2018-10-05T05:10:10.394Z,68.49
2018-10-05T05:12:36.744Z,68.74
2018-10-05T05:15:03.061Z,67.12
2018-10-05T05:17:29.410Z,65.71
2018-10-05T05:19:56.051Z,65.58
2018-10-05T05:22:22.372Z,64.49
2018-10-05T05:24:48.693Z,64.07
2018-10-05T05:27:15.228Z,63.50
2018-10-05T05:29:41.556Z,63.58
2018-10-05T05:32:07.876Z,63.13
2018-10-05T05:34:34.296Z,62.79
2018-10-05T05:37:00.749Z,62.17
2018-10-05T05:39:27.074Z,61.22
2018-10-05T05:41:53.431Z,60.69
2018-10-05T05:44:19.758Z,61.79
2018-10-05T05:46:46.134Z,61.36
2018-10-05T05:49:12.832Z,60.66
2018-10-05T05:51:39.159Z,59.66
2018-10-05T05:54:05.540Z,59.21
2018-10-05T05:56:31.888Z,59.23
2018-10-05T05:58:58.229Z,58.88
2018-10-05T06:01:24.548Z,58.24
2018-10-05T06:03:50.938Z,57.74
2018-10-05T06:06:17.278Z,57.42
2018-10-05T06:08:43.625Z,57.06
2018-10-05T06:11:09.988Z,56.08
2018-10-05T06:13:36.308Z,54.99
2018-10-05T06:16:02.724Z,54.86
2018-10-05T06:18:29.012Z,54.71
2018-10-05T06:20:55.353Z,54.26
2018-10-05T06:23:22.287Z,53.96
2018-10-05T06:25:48.603Z,53.75
2018-10-05T06:28:14.921Z,53.81
2018-10-05T06:30:41.357Z,53.15
2018-10-05T06:33:07.631Z,53.76
2018-10-05T06:35:33.956Z,52.83
2018-10-05T06:38:00.347Z,52.45
2018-10-05T06:40:26.698Z,51.81
2018-10-05T06:42:53.065Z,51.50
2018-10-05T06:45:19.390Z,51.16
2018-10-05T06:47:45.733Z,51.04
2018-10-05T06:50:12.118Z,50.10
2018-10-05T06:52:38.467Z,50.87
2018-10-05T06:55:04.813Z,50.38
2018-10-05T06:57:31.198Z,49.39
2018-10-05T06:59:57.523Z,48.75
2018-10-05T07:02:23.843Z,48.46
2018-10-05T07:04:50.248Z,47.78
2018-10-05T07:07:16.570Z,47.90
2018-10-05T07:09:42.914Z,47.92
2018-10-05T07:12:09.284Z,48.19
2018-10-05T07:14:35.634Z,46.47
2018-10-05T07:17:02.004Z,46.96
2018-10-05T07:19:28.343Z,47.26
2018-10-05T07:21:54.720Z,46.94
2018-10-05T07:24:21.122Z,46.15
2018-10-05T07:26:47.440Z,46.03
2018-10-05T07:29:13.761Z,46.20
2018-10-05T07:31:40.135Z,46.10
2018-10-05T07:34:06.481Z,45.47
2018-10-05T07:36:32.822Z,45.21
2018-10-05T07:38:59.184Z,44.44
2018-10-05T07:41:25.510Z,44.76
2018-10-05T07:43:51.837Z,43.76
2018-10-05T07:46:18.182Z,43.35
2018-10-05T07:48:44.539Z,43.98
2018-10-05T07:51:10.951Z,43.57
2018-10-05T07:53:37.293Z,42.91
2018-10-05T07:56:03.639Z,41.79
2018-10-05T07:58:30.005Z,41.86
2018-10-05T08:00:56.356Z,41.59
2018-10-05T08:03:22.682Z,42.08
2018-10-05T08:05:49.009Z,41.51
2018-10-05T08:08:15.421Z,41.94
2018-10-05T08:10:41.815Z,41.53
2018-10-05T08:13:08.162Z,41.20
2018-10-05T08:15:34.522Z,40.91
2018-10-05T08:18:00.919Z,40.08
2018-10-05T08:20:27.267Z,39.66
2018-10-05T08:22:53.714Z,39.73
2018-10-05T08:25:20.082Z,39.16
2018-10-05T08:27:46.682Z,39.86
2018-10-05T08:30:12.756Z,40.24
2018-10-05T08:32:39.107Z,39.60
2018-10-05T08:35:05.454Z,39.60
2018-10-05T08:37:31.835Z,38.59
2018-10-05T08:39:58.295Z,38.63
2018-10-05T08:42:24.492Z,37.75
2018-10-05T08:44:50.887Z,37.45
2018-10-05T08:47:17.242Z,38.06
2018-10-05T08:49:43.592Z,37.51
2018-10-05T08:52:10.012Z,37.37
2018-10-05T08:54:36.266Z,37.00
2018-10-05T08:57:02.661Z,36.42
2018-10-05T08:59:29.007Z,35.95
2018-10-05T09:01:55.330Z,35.66
2018-10-05T09:04:21.723Z,35.74
2018-10-05T09:06:48.076Z,35.93
2018-10-05T09:09:14.397Z,35.31
2018-10-05T09:11:40.741Z,34.85
2018-10-05T09:14:07.068Z,34.33
2018-10-05T09:16:33.431Z,34.91
2018-10-05T09:18:59.754Z,35.14
2018-10-05T09:21:26.171Z,34.89
2018-10-05T09:23:52.509Z,34.33
2018-10-05T09:26:18.835Z,34.12
2018-10-05T09:28:45.256Z,33.97
2018-10-05T09:31:11.577Z,33.52
2018-10-05T09:33:37.968Z,32.96
2018-10-05T09:36:04.356Z,32.02
2018-10-05T09:38:30.709Z,31.38
2018-10-05T09:40:57.071Z,31.53
2018-10-05T09:43:23.437Z,31.68
2018-10-05T09:45:49.789Z,31.76
2018-10-05T09:48:16.139Z,32.43
2018-10-05T09:50:42.532Z,32.43
2018-10-05T09:53:08.876Z,30.81
2018-10-05T09:55:35.232Z,31.32
2018-10-05T09:58:01.610Z,31.74
2018-10-05T10:00:27.947Z,30.83
2018-10-05T10:02:54.295Z,30.34
2018-10-05T10:05:20.684Z,30.33
2018-10-05T10:07:47.081Z,31.42
2018-10-05T10:10:13.419Z,31.24
2018-10-05T10:12:39.774Z,31.48
2018-10-05T10:15:06.120Z,31.24
2018-10-05T10:17:32.451Z,29.93
2018-10-05T10:19:58.819Z,28.84
2018-10-05T10:22:25.161Z,29.50
2018-10-05T10:24:51.485Z,29.58
2018-10-05T10:27:17.843Z,29.61
2018-10-05T10:29:44.191Z,30.37
2018-10-05T10:32:10.889Z,29.85
2018-10-05T10:34:37.314Z,29.78
2018-10-05T10:37:03.655Z,29.65
2018-10-05T10:39:30.047Z,29.36
2018-10-05T10:41:56.394Z,29.18
2018-10-05T10:44:22.739Z,29.52
2018-10-05T10:46:49.111Z,29.59
2018-10-05T10:49:15.460Z,29.90
2018-10-05T10:51:41.784Z,30.14
2018-10-05T10:54:08.172Z,29.74
2018-10-05T10:56:34.429Z,28.92
2018-10-05T10:59:00.822Z,28.32
2018-10-05T11:01:27.171Z,29.18
2018-10-05T11:03:53.541Z,29.15
2018-10-05T11:06:19.871Z,29.87
2018-10-05T11:08:46.213Z,30.48
2018-10-05T11:11:12.794Z,29.88
2018-10-05T11:13:39.041Z,29.36
2018-10-05T11:16:05.365Z,29.05
2018-10-05T11:18:31.762Z,28.13
2018-10-05T11:20:58.114Z,29.19
2018-10-05T11:23:24.464Z,30.22
2018-10-05T11:25:50.781Z,29.86
2018-10-05T11:28:17.116Z,29.14
2018-10-05T11:30:43.449Z,28.51
2018-10-05T11:33:09.769Z,28.23
2018-10-05T11:35:36.132Z,29.01
2018-10-05T11:38:02.457Z,29.14
2018-10-05T11:40:28.809Z,28.66
2018-10-05T11:42:55.312Z,28.73
2018-10-05T11:45:21.657Z,28.67
2018-10-05T11:47:48.010Z,29.06
2018-10-05T11:50:14.394Z,29.14
2018-10-05T11:52:40.758Z,28.12
2018-10-05T11:55:07.105Z,28.32
2018-10-05T11:57:33.493Z,28.54
2018-10-05T11:59:59.813Z,28.42
2018-10-05T12:02:26.215Z,28.81
2018-10-05T12:04:52.511Z,29.71
2018-10-05T12:07:18.859Z,28.83
2018-10-05T12:09:45.230Z,29.10
2018-10-05T12:12:11.552Z,29.38
2018-10-05T12:14:37.897Z,29.48
2018-10-05T12:17:04.257Z,28.94
2018-10-05T12:19:30.582Z,28.75
2018-10-05T12:21:56.901Z,29.23
2018-10-05T12:24:23.285Z,29.72
2018-10-05T12:26:49.630Z,29.94
2018-10-05T12:29:15.980Z,29.43
2018-10-05T12:31:42.478Z,28.75
2018-10-05T12:34:08.822Z,28.41
2018-10-05T12:36:35.147Z,28.55
2018-10-05T12:39:01.510Z,29.23
2018-10-05T12:41:27.854Z,29.82
2018-10-05T12:43:54.199Z,29.86
2018-10-05T12:46:20.583Z,29.33
2018-10-05T12:48:46.923Z,29.18
2018-10-05T12:51:13.263Z,28.45
2018-10-05T12:53:39.726Z,28.94
2018-10-05T12:56:06.073Z,29.62
2018-10-05T12:58:32.491Z,29.88
2018-10-05T13:00:58.837Z,30.56
2018-10-05T13:03:25.162Z,32.50
2018-10-05T13:05:51.535Z,32.86
2018-10-05T13:08:17.869Z,32.87
2018-10-05T13:10:44.220Z,33.47
2018-10-05T13:13:10.587Z,33.33
2018-10-05T13:15:36.930Z,33.63
2018-10-05T13:18:03.254Z,33.40
2018-10-05T13:20:29.624Z,32.97
2018-10-05T13:22:56.005Z,33.34
2018-10-05T13:25:22.332Z,33.46
2018-10-05T13:27:48.770Z,34.00
2018-10-05T13:30:15.091Z,34.21
2018-10-05T13:32:41.436Z,34.32
2018-10-05T13:35:07.764Z,34.33
2018-10-05T13:37:34.188Z,34.16
2018-10-05T13:40:00.570Z,34.26
2018-10-05T13:42:26.954Z,34.40
2018-10-05T13:44:53.314Z,34.68
2018-10-05T13:47:19.655Z,34.29
2018-10-05T13:49:46.003Z,34.59
2018-10-05T13:52:12.334Z,34.66
2018-10-05T13:54:38.687Z,34.79
2018-10-05T13:57:05.029Z,34.77
2018-10-05T13:59:31.355Z,34.66
2018-10-05T14:01:57.709Z,35.01
2018-10-05T14:04:24.057Z,34.78
2018-10-05T14:06:50.468Z,34.83
2018-10-05T14:09:16.767Z,35.31
2018-10-05T14:11:43.093Z,35.31
2018-10-05T14:14:09.460Z,35.27
2018-10-05T14:16:35.766Z,35.27
2018-10-05T14:19:02.121Z,35.52
2018-10-05T14:21:28.414Z,35.55
2018-10-05T14:23:54.736Z,35.75
2018-10-05T14:26:21.116Z,35.82
2018-10-05T14:28:47.452Z,35.82
2018-10-05T14:31:13.780Z,35.62
2018-10-05T14:33:40.171Z,35.81
2018-10-05T14:36:06.461Z,35.98
2018-10-05T14:38:32.784Z,36.38
2018-10-05T14:40:59.186Z,36.40
2018-10-05T14:43:25.523Z,36.41
2018-10-05T14:45:51.943Z,36.51
2018-10-05T14:48:18.253Z,36.60
2018-10-05T14:50:44.579Z,36.64
2018-10-05T14:53:10.921Z,36.74
2018-10-05T14:55:37.268Z,37.14
2018-10-05T14:58:03.607Z,37.01
2018-10-05T15:00:29.931Z,37.22
2018-10-05T15:02:56.252Z,37.30
2018-10-05T15:05:22.603Z,37.44
2018-10-05T15:07:48.940Z,37.41
2018-10-05T15:10:15.259Z,37.57
2018-10-05T15:12:41.660Z,37.59
2018-10-05T15:15:07.967Z,37.76
2018-10-05T15:17:34.297Z,37.80
2018-10-05T15:20:00.681Z,38.00
2018-10-05T15:22:27.028Z,38.18
2018-10-05T15:24:53.342Z,38.17
2018-10-05T15:27:19.698Z,38.40
2018-10-05T15:29:46.044Z,38.45
2018-10-05T15:32:12.358Z,38.65
2018-10-05T15:34:38.718Z,38.83
2018-10-05T15:37:05.338Z,39.02
2018-10-05T15:39:31.655Z,39.14
2018-10-05T15:41:58.009Z,39.30
2018-10-05T15:44:24.351Z,39.52
2018-10-05T15:46:50.670Z,39.77
2018-10-05T15:49:16.990Z,39.81
2018-10-05T15:51:43.346Z,40.08
2018-10-05T15:54:09.664Z,40.22
2018-10-05T15:56:35.986Z,40.51
2018-10-05T15:59:02.464Z,40.66
2018-10-05T16:01:28.731Z,41.11
2018-10-05T16:03:55.053Z,41.40
2018-10-05T16:06:21.434Z,41.52
2018-10-05T16:08:47.774Z,41.73
2018-10-05T16:11:14.114Z,41.76
2018-10-05T16:13:40.493Z,41.92
2018-10-05T16:16:06.837Z,42.11
2018-10-05T16:18:33.178Z,42.28
2018-10-05T16:20:59.620Z,42.64
2018-10-05T16:23:25.875Z,42.81
2018-10-05T16:25:52.217Z,43.11
2018-10-05T16:28:18.576Z,43.23
2018-10-05T16:30:44.895Z,43.51
2018-10-05T16:33:11.238Z,43.85
2018-10-05T16:35:37.603Z,44.05
2018-10-05T16:38:03.944Z,44.16
2018-10-05T16:40:30.284Z,44.54
2018-10-05T16:42:56.644Z,44.71
2018-10-05T16:45:22.985Z,45.16
2018-10-05T16:47:49.317Z,45.18
2018-10-05T16:50:15.691Z,45.44
2018-10-05T16:52:42.015Z,45.52
2018-10-05T16:55:08.357Z,45.87
2018-10-05T16:57:34.770Z,46.03
2018-10-05T17:00:01.126Z,46.12
2018-10-05T17:02:27.441Z,46.16
2018-10-05T17:04:53.803Z,46.14
2018-10-05T17:07:20.142Z,46.40
2018-10-05T17:09:46.460Z,46.31
2018-10-05T17:12:12.939Z,46.37
2018-10-05T17:14:39.173Z,46.52
2018-10-05T17:17:05.523Z,46.60
2018-10-05T17:19:31.946Z,46.92
2018-10-05T17:21:58.289Z,47.09
2018-10-05T17:24:24.635Z,47.46
2018-10-05T17:26:51.010Z,47.50
2018-10-05T17:29:17.339Z,47.52
2018-10-05T17:31:43.649Z,47.59
2018-10-05T17:34:10.138Z,47.78
2018-10-05T17:36:36.457Z,48.10
2018-10-05T17:39:02.799Z,48.20
2018-10-05T17:41:29.181Z,48.37
2018-10-05T17:43:55.521Z,48.56
2018-10-05T17:46:21.884Z,48.73
2018-10-05T17:48:48.204Z,48.71
2018-10-05T17:51:14.524Z,48.79
2018-10-05T17:53:40.844Z,48.73
2018-10-05T17:56:07.237Z,48.69
2018-10-05T17:58:33.542Z,49.00
2018-10-05T18:00:59.862Z,49.14
2018-10-05T18:03:26.180Z,49.29
2018-10-05T18:05:52.576Z,49.73
2018-10-05T18:08:18.978Z,49.83
2018-10-05T18:10:45.290Z,50.11
2018-10-05T18:13:11.658Z,50.37
2018-10-05T18:15:37.996Z,50.38
2018-10-05T18:18:04.319Z,50.77
2018-10-05T18:20:30.718Z,50.72
2018-10-05T18:22:57.042Z,50.86
2018-10-05T18:25:23.390Z,51.10
2018-10-05T18:27:49.775Z,51.47
2018-10-05T18:30:16.101Z,51.72
2018-10-05T18:32:42.448Z,52.02
2018-10-05T18:35:08.774Z,51.96
2018-10-05T18:37:35.097Z,52.06
2018-10-05T18:40:01.444Z,52.39
2018-10-05T18:42:28.133Z,52.56
2018-10-05T18:44:54.476Z,52.55
2018-10-05T18:47:20.894Z,52.75
2018-10-05T18:49:47.833Z,52.96
2018-10-05T18:52:14.177Z,53.26
2018-10-05T18:54:40.529Z,53.21
2018-10-05T18:57:06.920Z,53.34
2018-10-05T18:59:33.258Z,53.45
2018-10-05T19:02:00.810Z,53.75
2018-10-05T19:04:25.876Z,53.87
2018-10-05T19:06:52.436Z,53.96
2018-10-05T19:09:18.788Z,54.07
2018-10-05T19:11:45.119Z,54.26
2018-10-05T19:14:11.594Z,54.32
2018-10-05T19:16:37.916Z,54.65
2018-10-05T19:19:04.255Z,54.75
2018-10-05T19:21:30.593Z,54.92
2018-10-05T19:23:56.973Z,54.75
2018-10-05T19:26:23.439Z,54.84
2018-10-05T19:28:49.729Z,54.96
2018-10-05T19:31:16.004Z,54.97
2018-10-05T19:33:42.335Z,55.13
2018-10-05T19:36:08.784Z,55.50
2018-10-05T19:38:35.174Z,55.41
2018-10-05T19:41:03.062Z,55.51
2018-10-05T19:43:28.214Z,55.64
2018-10-05T19:45:54.534Z,55.82
2018-10-05T19:48:20.821Z,55.92
2018-10-05T19:50:47.152Z,56.26
2018-10-05T19:53:13.531Z,56.31
2018-10-05T19:55:39.843Z,56.43
2018-10-05T19:58:06.162Z,56.71
2018-10-05T20:00:32.482Z,56.81
2018-10-05T20:02:58.828Z,56.88
2018-10-05T20:05:25.145Z,56.77
2018-10-05T20:07:52.851Z,57.23
2018-10-05T20:10:17.988Z,57.10
2018-10-05T20:12:44.342Z,57.35
2018-10-05T20:15:10.727Z,57.21
2018-10-05T20:17:37.045Z,57.55
2018-10-05T20:20:03.361Z,57.36
2018-10-05T20:22:29.745Z,57.43
2018-10-05T20:24:56.086Z,57.34
2018-10-05T20:27:22.423Z,57.38
2018-10-05T20:29:48.782Z,57.43
2018-10-05T20:32:15.103Z,57.54
2018-10-05T20:34:41.414Z,57.53
2018-10-05T20:37:07.860Z,57.84
2018-10-05T20:39:34.090Z,57.84
2018-10-05T20:42:00.428Z,57.84
2018-10-05T20:44:26.880Z,57.88
2018-10-05T20:46:53.135Z,57.84
2018-10-05T20:49:19.460Z,58.10
2018-10-05T20:51:45.902Z,58.14
2018-10-05T20:54:12.233Z,58.34
2018-10-05T20:56:38.557Z,58.59
2018-10-05T20:59:04.926Z,58.87
2018-10-05T21:01:31.269Z,59.02
2018-10-05T21:03:57.591Z,58.59
2018-10-05T21:06:23.979Z,58.94
2018-10-05T21:08:50.324Z,59.21
2018-10-05T21:11:16.638Z,59.09
2018-10-05T21:13:43.097Z,59.21
2018-10-05T21:16:09.431Z,58.98
2018-10-05T21:18:35.776Z,58.93
2018-10-05T21:21:02.152Z,58.70
2018-10-05T21:23:28.518Z,58.85
2018-10-05T21:25:54.855Z,59.02
2018-10-05T21:28:21.235Z,58.84
2018-10-05T21:30:47.563Z,58.71
2018-10-05T21:33:13.967Z,58.71
2018-10-05T21:35:40.271Z,58.57
2018-10-05T21:38:06.590Z,58.51
2018-10-05T21:40:32.916Z,58.58
2018-10-05T21:42:59.299Z,58.36
2018-10-05T21:45:25.629Z,58.29
2018-10-05T21:47:51.952Z,58.36
2018-10-05T21:50:18.308Z,58.40
2018-10-05T21:52:44.626Z,58.46
2018-10-05T21:55:10.949Z,58.50
2018-10-05T21:57:37.325Z,58.62
2018-10-05T22:00:03.655Z,58.59
2018-10-05T22:02:29.974Z,58.66
2018-10-05T22:04:56.358Z,58.53
2018-10-05T22:07:22.707Z,58.49
2018-10-05T22:09:49.023Z,58.67
2018-10-05T22:12:15.343Z,58.82
2018-10-05T22:14:41.668Z,58.74
2018-10-05T22:17:08.346Z,58.78
2018-10-05T22:19:34.770Z,58.65
2018-10-05T22:22:01.074Z,58.64
2018-10-05T22:24:27.448Z,58.66
2018-10-05T22:26:53.768Z,58.79
2018-10-05T22:29:20.084Z,58.92
2018-10-05T22:31:46.475Z,59.17
2018-10-05T22:34:12.827Z,59.24
2018-10-05T22:36:39.175Z,59.53
2018-10-05T22:39:05.648Z,59.60
2018-10-05T22:41:31.982Z,59.59
2018-10-05T22:43:58.322Z,59.80
2018-10-05T22:46:24.672Z,60.08
2018-10-05T22:48:51.012Z,60.31
2018-10-05T22:51:17.461Z,60.39
2018-10-05T22:53:43.803Z,60.52
2018-10-05T22:56:10.186Z,60.73
2018-10-05T22:58:36.528Z,61.02
2018-10-05T23:01:02.868Z,61.03
2018-10-05T23:03:29.249Z,60.99
2018-10-05T23:05:55.595Z,61.21
2018-10-05T23:08:21.935Z,61.03
2018-10-05T23:10:48.313Z,61.12
2018-10-05T23:13:14.655Z,61.19
2018-10-05T23:15:40.997Z,61.33
2018-10-05T23:18:07.420Z,61.70
2018-10-05T23:20:33.764Z,61.53
2018-10-05T23:23:00.098Z,61.83
2018-10-05T23:25:26.819Z,62.00
2018-10-05T23:27:53.156Z,62.18
2018-10-05T23:30:19.500Z,62.41
2018-10-05T23:32:45.884Z,62.45
2018-10-05T23:35:12.225Z,62.33
2018-10-05T23:37:38.567Z,62.21
2018-10-05T23:40:04.944Z,62.06
2018-10-05T23:42:31.288Z,62.23
2018-10-05T23:44:57.639Z,62.39
2018-10-05T23:47:24.024Z,62.24
2018-10-05T23:49:50.365Z,62.57
2018-10-05T23:52:16.704Z,62.86
2018-10-05T23:54:43.107Z,62.84
2018-10-05T23:57:09.465Z,63.03
2018-10-05T23:59:35.817Z,63.23
